Time;durP1;ratioP1;P1;durP2;ratioP2;P2;SDS_P1;SDS_P2;PMS_P1;PMS_P2;Temp;Humidity;BMP_temperature;BMP_pressure;BME280_temperature;BME280_humidity;BME280_pressure;Samples;Min_cycle;Max_cycle;Signal;HPM_P1;HPM_P2
2023/06/08 00:00:11;;;;;;;19.67;8.90;;;12.00;99.90;;;;;;6148059;23;20011;-78
2023/06/08 00:02:36;;;;;;;17.05;8.48;;;12.00;99.90;;;;;;6148914;23;20399;-77
2023/06/08 00:05:02;;;;;;;18.75;8.95;;;12.00;99.90;;;;;;6149717;23;20009;-78
2023/06/08 00:07:29;;;;;;;12.85;9.10;;;11.90;99.90;;;;;;6151758;23;20013;-79
2023/06/08 00:09:57;;;;;;;16.55;8.43;;;11.80;99.90;;;;;;6150788;23;20014;-78
2023/06/08 00:12:22;;;;;;;13.82;7.95;;;11.70;99.90;;;;;;6152252;23;20873;-79
2023/06/08 00:14:48;;;;;;;19.58;9.13;;;11.70;99.90;;;;;;6151218;23;20010;-78
2023/06/08 00:17:14;;;;;;;14.43;7.95;;;11.70;99.90;;;;;;6155914;23;20016;-78
2023/06/08 00:19:42;;;;;;;16.25;9.45;;;11.60;99.90;;;;;;6149687;23;20041;-78
2023/06/08 00:22:08;;;;;;;14.30;8.90;;;11.60;99.90;;;;;;6150596;23;20009;-78
2023/06/08 00:24:37;;;;;;;13.32;8.80;;;11.60;99.90;;;;;;6149382;23;20029;-77
2023/06/08 00:27:07;;;;;;;17.95;9.30;;;11.50;99.90;;;;;;6150389;23;20004;-79
2023/06/08 00:29:33;;;;;;;20.30;10.02;;;11.40;99.90;;;;;;6149306;23;20005;-79
2023/06/08 00:31:59;;;;;;;16.23;8.75;;;11.40;99.90;;;;;;6148283;23;20017;-79
2023/06/08 00:34:26;;;;;;;16.83;10.18;;;11.30;99.90;;;;;;6148679;23;20354;-80
2023/06/08 00:36:51;;;;;;;18.95;8.55;;;11.30;99.90;;;;;;6147791;23;20076;-79
2023/06/08 00:39:17;;;;;;;17.05;9.68;;;11.20;99.90;;;;;;6148163;23;20565;-79
2023/06/08 00:41:42;;;;;;;14.90;8.93;;;11.20;99.90;;;;;;6148838;23;20001;-80
2023/06/08 00:44:08;;;;;;;14.00;8.70;;;11.20;99.90;;;;;;6148870;23;20352;-80
2023/06/08 00:46:36;;;;;;;15.52;8.63;;;11.30;99.90;;;;;;6149055;23;20009;-80
2023/06/08 00:49:02;;;;;;;15.82;8.63;;;11.20;99.90;;;;;;6150458;23;20036;-78
2023/06/08 00:51:34;;;;;;;18.92;8.85;;;11.20;99.90;;;;;;6148986;23;20328;-79
2023/06/08 00:54:01;;;;;;;13.48;8.80;;;11.30;99.90;;;;;;6149667;23;20720;-79
2023/06/08 00:56:31;;;;;;;14.85;8.93;;;11.20;99.90;;;;;;6149312;23;20461;-79
2023/06/08 00:59:00;;;;;;;18.50;10.35;;;11.20;99.90;;;;;;6140938;23;20029;-79
2023/06/08 01:01:35;;;;;;;19.35;10.30;;;11.10;99.90;;;;;;6147898;23;20035;-80
2023/06/08 01:04:07;;;;;;;15.70;10.70;;;11.10;99.90;;;;;;6148089;23;20080;-80
2023/06/08 01:06:45;;;;;;;21.35;10.73;;;11.10;99.90;;;;;;6149199;23;20084;-79
2023/06/08 01:09:15;;;;;;;17.15;9.73;;;11.00;99.90;;;;;;6147758;23;20093;-79
2023/06/08 01:12:18;;;;;;;21.77;12.15;;;10.90;99.90;;;;;;6151175;23;20005;-79
2023/06/08 01:14:59;;;;;;;21.88;11.75;;;10.90;99.90;;;;;;6149488;23;20008;-80
2023/06/08 01:17:32;;;;;;;17.27;9.98;;;10.90;99.90;;;;;;6149121;23;20010;-80
2023/06/08 01:20:08;;;;;;;18.50;9.98;;;10.80;99.90;;;;;;6149804;23;20021;-80
2023/06/08 01:23:00;;;;;;;17.73;10.57;;;10.80;99.90;;;;;;6148583;23;20013;-79
2023/06/08 01:25:31;;;;;;;16.95;9.75;;;10.80;99.90;;;;;;6149718;23;20407;-79
2023/06/08 01:28:20;;;;;;;16.77;10.18;;;10.70;99.90;;;;;;6159376;23;20001;-79
2023/06/08 01:30:48;;;;;;;20.02;11.38;;;10.50;99.90;;;;;;6145401;23;20013;-79
2023/06/08 01:33:33;;;;;;;11.98;8.43;;;10.40;99.90;;;;;;6151321;23;20465;-79
2023/06/08 01:36:06;;;;;;;12.95;9.52;;;10.30;99.90;;;;;;6150271;23;20033;-79
2023/06/08 01:38:39;;;;;;;12.85;8.60;;;10.30;99.90;;;;;;6148255;23;20016;-79
2023/06/08 01:41:13;;;;;;;10.70;8.20;;;10.10;99.90;;;;;;6149377;23;20012;-79
2023/06/08 01:43:41;;;;;;;13.75;8.50;;;10.10;99.90;;;;;;6146863;23;20016;-80
2023/06/08 01:46:11;;;;;;;10.55;8.45;;;10.10;99.90;;;;;;6148455;23;20008;-79
2023/06/08 01:48:40;;;;;;;11.88;8.98;;;10.20;99.90;;;;;;6149451;23;20458;-79
2023/06/08 01:51:07;;;;;;;10.90;8.30;;;10.10;99.90;;;;;;6148994;23;20036;-80
2023/06/08 01:53:33;;;;;;;11.52;7.93;;;10.00;99.90;;;;;;6149614;23;20052;-78
2023/06/08 01:55:58;;;;;;;11.90;8.90;;;9.90;99.90;;;;;;6154613;23;20010;-78
2023/06/08 01:58:24;;;;;;;14.55;9.13;;;9.80;99.90;;;;;;6150956;23;20001;-77
2023/06/08 02:00:50;;;;;;;10.98;9.00;;;9.80;99.90;;;;;;6153705;23;20025;-77
2023/06/08 02:03:15;;;;;;;14.43;9.50;;;9.80;99.90;;;;;;6153642;23;20299;-77
2023/06/08 02:05:41;;;;;;;14.55;9.32;;;9.80;99.90;;;;;;6152066;23;20002;-78
2023/06/08 02:08:06;;;;;;;12.02;8.60;;;9.90;99.90;;;;;;6151152;23;20005;-77
2023/06/08 02:10:32;;;;;;;13.93;9.48;;;10.00;99.90;;;;;;6150656;23;20016;-77
2023/06/08 02:12:57;;;;;;;15.18;11.18;;;10.10;99.90;;;;;;6148953;23;20052;-78
2023/06/08 02:15:23;;;;;;;13.10;9.50;;;10.10;99.90;;;;;;6147705;23;19998;-79
2023/06/08 02:17:48;;;;;;;12.15;9.80;;;10.10;99.90;;;;;;6148020;23;20009;-78
2023/06/08 02:20:14;;;;;;;12.57;9.60;;;10.20;99.90;;;;;;6148382;23;20088;-78
2023/06/08 02:22:40;;;;;;;11.35;8.70;;;10.20;99.90;;;;;;6149964;23;20008;-78
2023/06/08 02:25:08;;;;;;;14.48;10.20;;;10.20;99.90;;;;;;6147275;23;20509;-79
2023/06/08 02:27:36;;;;;;;15.35;9.07;;;10.20;99.90;;;;;;6147656;23;20005;-77
2023/06/08 02:30:03;;;;;;;14.40;10.23;;;10.10;99.90;;;;;;6148934;23;20454;-78
2023/06/08 02:32:32;;;;;;;11.10;8.73;;;10.10;99.90;;;;;;6147273;23;20561;-78
2023/06/08 02:35:01;;;;;;;11.88;9.45;;;10.10;99.90;;;;;;6147135;23;20538;-78
2023/06/08 02:37:27;;;;;;;12.98;10.40;;;10.20;99.90;;;;;;6154971;23;20032;-78
2023/06/08 02:39:53;;;;;;;12.43;9.50;;;10.30;99.90;;;;;;6151672;23;20005;-78
2023/06/08 02:42:18;;;;;;;11.93;10.30;;;10.30;99.90;;;;;;6148686;23;20010;-77
2023/06/08 02:44:45;;;;;;;17.38;9.52;;;10.30;99.90;;;;;;6149002;23;20009;-78
2023/06/08 02:47:11;;;;;;;16.67;9.75;;;10.30;99.90;;;;;;6148004;23;20084;-78
2023/06/08 02:49:37;;;;;;;10.57;9.15;;;10.20;99.90;;;;;;6149446;23;20010;-78
2023/06/08 02:52:03;;;;;;;14.52;10.18;;;10.20;99.90;;;;;;6147043;23;20005;-78
2023/06/08 02:54:28;;;;;;;17.38;11.13;;;10.10;99.90;;;;;;6147213;23;20044;-78
2023/06/08 02:56:54;;;;;;;13.35;10.80;;;9.90;99.90;;;;;;6147681;23;20012;-78
2023/06/08 02:59:20;;;;;;;13.75;10.73;;;9.90;99.90;;;;;;6146880;23;20009;-78
2023/06/08 03:01:54;;;;;;;14.60;11.50;;;9.90;99.90;;;;;;6147602;23;20127;-77
2023/06/08 03:04:21;;;;;;;15.55;11.20;;;9.90;99.90;;;;;;6148132;23;20027;-78
2023/06/08 03:06:47;;;;;;;19.40;11.45;;;9.90;99.90;;;;;;6148349;23;20300;-79
2023/06/08 03:09:13;;;;;;;14.05;11.15;;;9.90;99.90;;;;;;6150055;23;20016;-79
2023/06/08 03:11:39;;;;;;;15.23;11.48;;;9.90;99.90;;;;;;6148751;23;20396;-78
2023/06/08 03:14:04;;;;;;;15.30;11.43;;;9.90;99.90;;;;;;6147856;23;20009;-79
2023/06/08 03:16:31;;;;;;;15.00;12.43;;;9.90;99.90;;;;;;6148533;23;20861;-79
2023/06/08 03:18:57;;;;;;;51.08;12.25;;;9.90;99.90;;;;;;6149052;23;20008;-79
2023/06/08 03:21:28;;;;;;;16.00;11.63;;;9.70;99.90;;;;;;6148457;23;20006;-79
2023/06/08 03:23:56;;;;;;;19.73;12.77;;;9.70;99.90;;;;;;6150149;23;20004;-79
2023/06/08 03:26:22;;;;;;;14.73;13.18;;;9.70;99.90;;;;;;6151037;23;19998;-79
2023/06/08 03:28:47;;;;;;;24.02;11.98;;;9.80;99.90;;;;;;6151091;23;20008;-77
2023/06/08 03:31:13;;;;;;;18.67;13.25;;;9.80;99.90;;;;;;6151856;23;20044;-79
2023/06/08 03:33:39;;;;;;;17.88;13.50;;;9.80;99.90;;;;;;6156572;23;20037;-79
2023/06/08 03:36:05;;;;;;;20.33;12.05;;;9.80;99.90;;;;;;6149678;23;20005;-77
2023/06/08 03:38:31;;;;;;;19.08;12.73;;;9.80;99.90;;;;;;6149897;23;20001;-79
2023/06/08 03:40:57;;;;;;;18.88;13.48;;;9.80;99.90;;;;;;6147560;23;20458;-79
2023/06/08 03:43:23;;;;;;;20.70;13.77;;;9.80;99.90;;;;;;6146121;23;20239;-78
2023/06/08 03:45:48;;;;;;;17.83;13.38;;;9.80;99.90;;;;;;6146643;23;20085;-78
2023/06/08 03:48:14;;;;;;;18.42;12.77;;;9.80;99.90;;;;;;6147554;23;20076;-79
2023/06/08 03:50:43;;;;;;;17.58;13.20;;;9.80;99.90;;;;;;6148346;23;20073;-78
2023/06/08 03:53:10;;;;;;;18.25;12.50;;;9.80;99.90;;;;;;6148446;23;20001;-78
2023/06/08 03:55:36;;;;;;;15.60;12.95;;;9.90;99.90;;;;;;6146342;23;20009;-79
2023/06/08 03:58:02;;;;;;;15.07;12.10;;;9.90;99.90;;;;;;6148222;23;20028;-79
2023/06/08 04:00:28;;;;;;;15.52;12.20;;;9.90;99.90;;;;;;6149029;23;20021;-78
2023/06/08 04:02:54;;;;;;;17.35;11.70;;;9.90;99.90;;;;;;6149858;23;20013;-79
2023/06/08 04:05:20;;;;;;;18.95;12.82;;;9.90;99.90;;;;;;6146267;23;20322;-79
2023/06/08 04:07:47;;;;;;;16.25;12.52;;;9.90;99.90;;;;;;6146570;23;20096;-78
2023/06/08 04:10:13;;;;;;;18.73;13.05;;;10.00;99.90;;;;;;6147569;23;20518;-79
2023/06/08 04:12:39;;;;;;;16.02;13.30;;;10.00;99.90;;;;;;6145952;23;20362;-78
2023/06/08 04:15:06;;;;;;;16.88;12.55;;;10.00;99.90;;;;;;6148662;23;20029;-79
2023/06/08 04:17:32;;;;;;;18.25;13.35;;;10.00;99.90;;;;;;6146822;23;20005;-77
2023/06/08 04:19:57;;;;;;;19.17;13.80;;;10.00;99.90;;;;;;6146584;23;20009;-79
2023/06/08 04:22:23;;;;;;;18.98;13.95;;;10.00;99.90;;;;;;6146960;23;20119;-79
2023/06/08 04:24:48;;;;;;;17.60;13.88;;;10.00;99.90;;;;;;6146440;23;20005;-79
2023/06/08 04:27:16;;;;;;;19.40;14.07;;;10.10;99.90;;;;;;6147621;23;20438;-78
2023/06/08 04:29:41;;;;;;;17.77;13.38;;;10.20;99.90;;;;;;6146742;23;20442;-78
2023/06/08 04:32:07;;;;;;;17.70;12.63;;;10.20;99.90;;;;;;6146749;23;20025;-79
2023/06/08 04:34:33;;;;;;;19.65;13.88;;;10.20;99.90;;;;;;6148426;23;20462;-80
2023/06/08 04:36:58;;;;;;;17.75;13.98;;;10.30;99.90;;;;;;6146160;23;20014;-78
2023/06/08 04:39:24;;;;;;;21.48;14.85;;;10.40;99.90;;;;;;6146934;23;20172;-79
2023/06/08 04:41:49;;;;;;;21.95;13.55;;;10.40;99.90;;;;;;6146564;23;20005;-79
2023/06/08 04:44:18;;;;;;;17.92;14.00;;;10.50;99.90;;;;;;6145953;23;20524;-79
2023/06/08 04:46:44;;;;;;;19.73;12.90;;;10.50;99.90;;;;;;6147866;23;20134;-79
2023/06/08 04:49:10;;;;;;;21.60;15.07;;;10.50;99.90;;;;;;6148996;23;20021;-80
2023/06/08 04:51:39;;;;;;;19.63;14.07;;;10.60;99.90;;;;;;6144595;23;20009;-78
2023/06/08 04:54:05;;;;;;;18.30;12.77;;;10.50;99.90;;;;;;6147993;23;20009;-78
2023/06/08 04:56:33;;;;;;;17.63;12.50;;;10.60;99.90;;;;;;6146083;23;20005;-79
2023/06/08 04:58:59;;;;;;;18.67;12.93;;;10.50;99.90;;;;;;6147820;23;20014;-78
2023/06/08 05:01:30;;;;;;;16.63;13.40;;;10.50;99.90;;;;;;6148689;23;20021;-79
2023/06/08 05:03:56;;;;;;;21.38;13.18;;;10.30;99.90;;;;;;6145945;23;20012;-78
2023/06/08 05:06:21;;;;;;;17.15;12.27;;;10.30;99.90;;;;;;6146372;23;20013;-79
2023/06/08 05:08:47;;;;;;;20.10;12.73;;;10.30;99.90;;;;;;6146106;23;20009;-78
2023/06/08 05:11:12;;;;;;;20.15;13.25;;;10.30;99.90;;;;;;6147249;23;20006;-80
2023/06/08 05:13:38;;;;;;;18.63;11.82;;;10.50;99.90;;;;;;6146437;23;20009;-79
2023/06/08 05:16:04;;;;;;;19.58;12.73;;;10.50;99.90;;;;;;6146229;23;20017;-79
2023/06/08 05:18:30;;;;;;;20.23;13.10;;;10.60;99.90;;;;;;6146735;23;20006;-78
2023/06/08 05:20:55;;;;;;;17.35;12.65;;;10.60;99.90;;;;;;6147611;23;20033;-78
2023/06/08 05:23:21;;;;;;;20.67;12.68;;;10.60;99.90;;;;;;6147938;23;20053;-78
2023/06/08 05:25:47;;;;;;;16.35;12.00;;;10.60;99.90;;;;;;6145644;23;20009;-78
2023/06/08 05:28:12;;;;;;;17.73;12.93;;;10.60;99.90;;;;;;6146538;23;20327;-78
2023/06/08 05:30:38;;;;;;;17.30;11.60;;;10.60;99.90;;;;;;6148021;23;20631;-78
2023/06/08 05:33:03;;;;;;;20.52;13.68;;;10.70;99.90;;;;;;6146736;23;20006;-78
2023/06/08 05:35:29;;;;;;;18.52;12.88;;;10.70;99.90;;;;;;6151675;23;20005;-78
2023/06/08 05:37:55;;;;;;;18.35;12.70;;;10.80;99.90;;;;;;6155764;23;20434;-78
2023/06/08 05:40:21;;;;;;;19.80;13.13;;;10.90;99.90;;;;;;6148302;23;20005;-79
2023/06/08 05:42:47;;;;;;;18.92;12.30;;;10.90;99.90;;;;;;6147827;23;20001;-79
2023/06/08 05:45:13;;;;;;;22.17;14.50;;;11.00;99.90;;;;;;6146381;23;20033;-79
2023/06/08 05:47:38;;;;;;;23.13;14.18;;;10.90;99.90;;;;;;6147079;23;20013;-79
2023/06/08 05:50:04;;;;;;;26.25;14.00;;;10.90;99.90;;;;;;6147076;23;20009;-80
2023/06/08 05:52:30;;;;;;;20.40;13.30;;;10.90;99.90;;;;;;6147505;23;20159;-78
2023/06/08 05:54:56;;;;;;;21.70;14.38;;;10.80;99.90;;;;;;6148778;23;20009;-79
2023/06/08 05:57:22;;;;;;;23.42;13.93;;;10.90;99.90;;;;;;6147146;23;20085;-80
2023/06/08 05:59:50;;;;;;;26.23;15.88;;;10.90;99.90;;;;;;6148468;23;20006;-79
2023/06/08 06:02:16;;;;;;;22.55;14.13;;;11.00;99.90;;;;;;6144596;23;20014;-79
2023/06/08 06:04:42;;;;;;;24.58;14.73;;;11.10;99.90;;;;;;6153420;23;20021;-78
2023/06/08 06:07:08;;;;;;;25.65;14.68;;;11.10;99.90;;;;;;6154324;23;20600;-79
2023/06/08 06:09:34;;;;;;;20.10;14.00;;;11.20;99.90;;;;;;6150726;23;20021;-79
2023/06/08 06:11:59;;;;;;;26.63;14.75;;;11.20;99.90;;;;;;6150588;23;20005;-80
2023/06/08 06:14:26;;;;;;;21.40;13.68;;;11.20;99.90;;;;;;6147781;23;20513;-79
2023/06/08 06:16:52;;;;;;;26.83;14.13;;;11.20;99.90;;;;;;6148109;23;20017;-80
2023/06/08 06:19:18;;;;;;;23.83;14.05;;;11.30;99.90;;;;;;6146938;23;20006;-79
2023/06/08 06:21:43;;;;;;;24.52;15.10;;;11.40;99.90;;;;;;6146843;23;19998;-79
2023/06/08 06:24:09;;;;;;;23.48;13.98;;;11.40;99.90;;;;;;6147022;23;20458;-79
2023/06/08 06:26:34;;;;;;;26.65;14.02;;;11.40;99.90;;;;;;6147192;23;20641;-80
2023/06/08 06:29:00;;;;;;;23.42;13.27;;;11.40;99.90;;;;;;6147253;23;20010;-79
2023/06/08 06:31:25;;;;;;;21.80;13.68;;;11.50;99.90;;;;;;6146415;23;20009;-79
2023/06/08 06:33:51;;;;;;;21.75;12.75;;;11.70;99.90;;;;;;6146673;23;20506;-79
2023/06/08 06:36:17;;;;;;;27.25;14.32;;;12.00;99.90;;;;;;6148158;23;20073;-79
2023/06/08 06:38:42;;;;;;;19.27;12.70;;;12.20;99.90;;;;;;6148786;23;20005;-79
2023/06/08 06:41:08;;;;;;;19.50;11.77;;;12.40;99.90;;;;;;6146736;23;20014;-79
2023/06/08 06:43:34;;;;;;;21.05;14.27;;;12.60;99.90;;;;;;6147165;23;19998;-79
2023/06/08 06:45:59;;;;;;;22.35;13.55;;;12.80;99.90;;;;;;6145470;23;20402;-78
2023/06/08 06:48:25;;;;;;;24.02;14.50;;;12.90;99.90;;;;;;6148155;23;20028;-78
2023/06/08 06:50:51;;;;;;;22.90;13.88;;;13.20;99.90;;;;;;6147168;23;20477;-79
2023/06/08 06:53:17;;;;;;;18.77;13.18;;;13.30;99.90;;;;;;6144138;23;20005;-80
2023/06/08 06:55:42;;;;;;;21.17;13.57;;;13.50;99.90;;;;;;6146087;23;20091;-78
2023/06/08 06:58:08;;;;;;;18.15;12.10;;;13.80;99.90;;;;;;6148296;23;20057;-78
2023/06/08 07:00:37;;;;;;;18.30;10.98;;;14.00;99.90;;;;;;6147576;23;20022;-78
2023/06/08 07:03:04;;;;;;;17.30;11.70;;;14.20;99.90;;;;;;6145104;23;20016;-78
2023/06/08 07:05:30;;;;;;;18.90;10.85;;;14.40;99.90;;;;;;6147467;23;20347;-79
2023/06/08 07:07:56;;;;;;;17.73;12.50;;;14.70;99.90;;;;;;6146566;23;20088;-78
2023/06/08 07:10:21;;;;;;;18.38;12.75;;;14.90;99.90;;;;;;6148107;23;20060;-77
2023/06/08 07:12:47;;;;;;;21.05;12.10;;;15.10;99.90;;;;;;6147307;23;20002;-78
2023/06/08 07:15:13;;;;;;;18.30;12.07;;;15.40;99.90;;;;;;6146002;23;20001;-79
2023/06/08 07:17:39;;;;;;;15.95;12.13;;;15.60;99.90;;;;;;6146897;23;20009;-78
2023/06/08 07:20:05;;;;;;;17.85;12.38;;;15.60;99.90;;;;;;6145159;23;20010;-78
2023/06/08 07:22:31;;;;;;;12.90;10.38;;;15.80;99.90;;;;;;6146289;23;20006;-78
2023/06/08 07:24:57;;;;;;;16.95;11.68;;;15.90;99.90;;;;;;6148253;23;20462;-78
2023/06/08 07:27:22;;;;;;;19.73;11.68;;;16.00;99.90;;;;;;6146951;23;20005;-78
2023/06/08 07:29:48;;;;;;;17.52;10.70;;;16.20;99.90;;;;;;6146199;23;20097;-78
2023/06/08 07:32:14;;;;;;;21.48;11.88;;;16.40;99.90;;;;;;6147708;23;20399;-79
2023/06/08 07:34:40;;;;;;;21.80;12.23;;;16.30;99.90;;;;;;6146599;23;20453;-78
2023/06/08 07:37:06;;;;;;;15.43;10.73;;;16.40;99.90;;;;;;6149025;23;20549;-79
2023/06/08 07:39:31;;;;;;;15.35;11.30;;;16.40;99.90;;;;;;6146808;23;20037;-79
2023/06/08 07:41:57;;;;;;;18.05;11.00;;;16.50;99.90;;;;;;6147965;23;20001;-79
2023/06/08 07:44:22;;;;;;;12.50;9.85;;;16.80;99.90;;;;;;6146845;23;20001;-79
2023/06/08 07:46:48;;;;;;;17.83;11.60;;;17.10;99.90;;;;;;6147715;23;20009;-78
2023/06/08 07:49:13;;;;;;;15.15;10.85;;;17.30;99.90;;;;;;6149318;23;20008;-80
2023/06/08 07:51:39;;;;;;;16.70;10.77;;;17.50;99.90;;;;;;6149442;23;20488;-78
2023/06/08 07:54:05;;;;;;;16.48;10.15;;;17.70;99.90;;;;;;6148752;23;20001;-80
2023/06/08 07:56:31;;;;;;;15.52;10.05;;;18.00;99.90;;;;;;6150469;23;20031;-79
2023/06/08 07:58:56;;;;;;;16.73;9.93;;;18.10;99.90;;;;;;6148870;23;20009;-78
2023/06/08 08:01:22;;;;;;;16.88;10.57;;;18.10;99.90;;;;;;6147711;23;20053;-79
2023/06/08 08:03:48;;;;;;;16.05;11.02;;;18.30;99.90;;;;;;6146871;23;20834;-78
2023/06/08 08:06:13;;;;;;;19.30;9.43;;;18.40;99.90;;;;;;6148774;23;20588;-80
2023/06/08 08:08:39;;;;;;;17.63;9.70;;;18.50;99.90;;;;;;6149956;23;20334;-79
2023/06/08 08:11:04;;;;;;;13.40;9.65;;;18.50;99.90;;;;;;6149007;23;20524;-80
2023/06/08 08:13:30;;;;;;;12.70;9.38;;;18.40;99.90;;;;;;6147714;23;20097;-79
2023/06/08 08:15:58;;;;;;;12.63;10.38;;;18.80;99.90;;;;;;6146846;23;20013;-79
2023/06/08 08:18:24;;;;;;;18.80;10.05;;;19.10;99.90;;;;;;6148730;23;20013;-79
2023/06/08 08:20:49;;;;;;;14.05;9.90;;;19.30;99.90;;;;;;6149508;23;20454;-79
2023/06/08 08:23:15;;;;;;;15.27;8.52;;;19.50;99.90;;;;;;6146485;23;20080;-81
2023/06/08 08:25:40;;;;;;;14.68;9.40;;;19.80;99.90;;;;;;6145915;23;20067;-79
2023/06/08 08:28:06;;;;;;;12.85;9.13;;;19.80;99.90;;;;;;6147134;23;20012;-79
2023/06/08 08:30:32;;;;;;;15.48;8.50;;;20.00;99.90;;;;;;6146294;23;20451;-78
2023/06/08 08:32:57;;;;;;;15.05;9.20;;;20.20;99.90;;;;;;6146094;23;20013;-79
2023/06/08 08:35:28;;;;;;;15.02;9.32;;;20.40;99.90;;;;;;6153356;23;19994;-79
2023/06/08 08:37:54;;;;;;;11.60;8.70;;;20.60;99.90;;;;;;6151310;23;19994;-79
2023/06/08 08:40:20;;;;;;;14.27;9.20;;;20.80;99.90;;;;;;6146390;23;20348;-79
2023/06/08 08:42:52;;;;;;;12.80;8.80;;;21.00;99.90;;;;;;6147247;23;20037;-80
2023/06/08 08:45:19;;;;;;;11.60;7.97;;;20.90;99.90;;;;;;6145942;23;20010;-79
2023/06/08 08:47:45;;;;;;;15.93;9.60;;;21.00;99.90;;;;;;6147991;23;20077;-79
2023/06/08 08:50:16;;;;;;;10.38;8.10;;;21.10;99.90;;;;;;6146043;23;20029;-79
2023/06/08 08:52:45;;;;;;;14.43;9.50;;;21.30;99.90;;;;;;6145132;23;20362;-79
2023/06/08 08:55:11;;;;;;;11.95;9.98;;;21.50;99.90;;;;;;6146915;23;20009;-79
2023/06/08 08:57:37;;;;;;;16.17;10.55;;;21.70;99.90;;;;;;6147212;23;20404;-79
2023/06/08 09:00:06;;;;;;;12.93;9.98;;;21.80;99.70;;;;;;6144430;23;20056;-80
2023/06/08 09:02:35;;;;;;;16.27;11.13;;;22.00;99.50;;;;;;6145208;23;20312;-80
2023/06/08 09:05:03;;;;;;;14.23;10.10;;;21.80;98.20;;;;;;6145944;23;20006;-79
2023/06/08 09:07:29;;;;;;;12.38;9.38;;;21.90;99.30;;;;;;6145865;23;20480;-79
2023/06/08 09:10:20;;;;;;;12.30;10.82;;;22.00;99.70;;;;;;6147450;23;20062;-79
2023/06/08 09:12:48;;;;;;;13.60;11.48;;;22.20;99.90;;;;;;6147258;23;20032;-79
2023/06/08 09:15:23;;;;;;;17.52;12.63;;;22.40;99.10;;;;;;6146028;23;20443;-79
2023/06/08 09:17:50;;;;;;;15.63;12.27;;;22.50;99.30;;;;;;6146030;23;20465;-79
2023/06/08 09:20:27;;;;;;;14.02;12.38;;;22.70;98.60;;;;;;6146573;23;20033;-79
2023/06/08 09:22:53;;;;;;;13.88;11.38;;;22.60;97.70;;;;;;6148371;23;20031;-79
2023/06/08 09:25:32;;;;;;;20.05;13.85;;;22.80;99.20;;;;;;6146352;23;20014;-80
2023/06/08 09:28:14;;;;;;;16.42;14.52;;;22.50;97.00;;;;;;6148571;23;20052;-78
2023/06/08 09:30:40;;;;;;;15.80;12.88;;;22.00;97.50;;;;;;6145215;23;20014;-79
2023/06/08 09:33:26;;;;;;;14.95;13.32;;;22.20;98.30;;;;;;6146727;23;20012;-79
2023/06/08 09:35:57;;;;;;;14.82;11.95;;;22.50;98.20;;;;;;6147827;23;20060;-81
2023/06/08 09:38:25;;;;;;;17.15;12.38;;;22.60;97.30;;;;;;6145964;23;20710;-79
2023/06/08 09:40:51;;;;;;;14.07;12.57;;;22.40;97.00;;;;;;6145968;23;20033;-79
2023/06/08 09:43:33;;;;;;;12.63;11.13;;;22.50;96.50;;;;;;6145221;23;20013;-81
2023/06/08 09:45:59;;;;;;;14.05;11.82;;;22.60;97.30;;;;;;6145274;23;20006;-81
2023/06/08 09:48:25;;;;;;;13.75;10.75;;;22.70;95.90;;;;;;6144868;23;20104;-78
2023/06/08 09:50:59;;;;;;;12.68;11.45;;;22.70;96.30;;;;;;6145731;23;20086;-79
2023/06/08 09:53:28;;;;;;;13.30;10.13;;;22.80;95.70;;;;;;6143558;23;20021;-79
2023/06/08 09:55:54;;;;;;;12.73;9.50;;;22.90;97.20;;;;;;6145258;23;20399;-78
2023/06/08 09:58:25;;;;;;;10.88;9.15;;;23.00;96.00;;;;;;6147138;23;20009;-79
2023/06/08 10:00:55;;;;;;;10.60;9.05;;;23.10;96.40;;;;;;6142873;23;20025;-78
2023/06/08 10:03:28;;;;;;;10.13;9.15;;;23.00;94.60;;;;;;6144938;23;20016;-78
2023/06/08 10:05:56;;;;;;;11.82;8.10;;;23.10;94.90;;;;;;6146742;23;20006;-78
2023/06/08 10:08:24;;;;;;;10.30;8.77;;;23.00;94.80;;;;;;6147416;23;20053;-78
2023/06/08 10:10:50;;;;;;;9.68;8.68;;;23.10;93.60;;;;;;6145726;23;20010;-78
2023/06/08 10:13:16;;;;;;;8.70;7.90;;;23.10;92.60;;;;;;6147951;23;20009;-80
2023/06/08 10:15:43;;;;;;;9.93;6.88;;;23.10;93.30;;;;;;6144272;23;20343;-79
2023/06/08 10:18:09;;;;;;;10.32;7.10;;;23.00;93.40;;;;;;6149662;23;20010;-78
2023/06/08 10:20:36;;;;;;;8.80;7.15;;;23.20;93.90;;;;;;6155701;23;20025;-78
2023/06/08 10:23:04;;;;;;;9.07;7.15;;;23.20;93.00;;;;;;6152603;23;20005;-79
2023/06/08 10:25:30;;;;;;;7.97;7.18;;;23.30;93.80;;;;;;6147283;23;20001;-81
2023/06/08 10:28:03;;;;;;;13.10;6.43;;;23.30;92.00;;;;;;6146944;23;20001;-79
2023/06/08 10:30:33;;;;;;;6.57;5.05;;;23.40;92.20;;;;;;6146706;23;20032;-79
2023/06/08 10:33:08;;;;;;;6.10;4.97;;;23.50;90.50;;;;;;6148514;23;20064;-79
2023/06/08 10:35:34;;;;;;;5.53;3.45;;;23.50;89.00;;;;;;6149404;23;20056;-79
2023/06/08 10:38:08;;;;;;;6.00;4.53;;;23.50;87.20;;;;;;6145576;23;20002;-79
2023/06/08 10:40:50;;;;;;;5.53;4.40;;;23.60;88.80;;;;;;6149711;23;20510;-79
2023/06/08 10:43:17;;;;;;;6.97;3.75;;;23.60;87.40;;;;;;6148988;23;20009;-80
2023/06/08 10:45:45;;;;;;;5.75;3.20;;;23.60;87.60;;;;;;6146438;23;20006;-79
2023/06/08 10:48:15;;;;;;;7.22;3.78;;;23.60;86.50;;;;;;6148077;23;19998;-82
2023/06/08 10:50:45;;;;;;;5.07;3.30;;;23.70;89.30;;;;;;6147900;23;20010;-80
2023/06/08 10:53:10;;;;;;;3.30;2.88;;;23.60;83.30;;;;;;6146313;23;20017;-80
2023/06/08 10:55:36;;;;;;;4.70;3.08;;;23.60;87.50;;;;;;6147434;23;20301;-78
2023/06/08 10:58:19;;;;;;;3.13;2.83;;;23.60;85.50;;;;;;6148614;23;20424;-79
2023/06/08 11:00:49;;;;;;;5.63;3.00;;;23.60;81.90;;;;;;6145821;23;20100;-78
2023/06/08 11:03:17;;;;;;;5.38;2.97;;;23.60;82.10;;;;;;6145544;23;20021;-79
2023/06/08 11:05:45;;;;;;;4.57;3.00;;;23.60;84.30;;;;;;6146920;23;20080;-79
2023/06/08 11:08:11;;;;;;;6.28;3.22;;;23.50;80.50;;;;;;6146824;23;20195;-83
2023/06/08 11:10:42;;;;;;;4.70;3.33;;;23.70;82.30;;;;;;6146194;23;20050;-79
2023/06/08 11:13:16;;;;;;;5.55;3.53;;;23.70;84.40;;;;;;6149097;23;20001;-81
2023/06/08 11:15:43;;;;;;;5.05;2.90;;;23.80;80.80;;;;;;6146153;23;20145;-79
2023/06/08 11:18:10;;;;;;;5.75;2.90;;;23.90;80.70;;;;;;6146812;23;20005;-79
2023/06/08 11:20:38;;;;;;;8.73;3.50;;;23.90;78.90;;;;;;6148637;23;20005;-80
2023/06/08 11:23:06;;;;;;;4.70;3.28;;;24.00;80.00;;;;;;6146845;23;20001;-81
2023/06/08 11:25:37;;;;;;;5.25;3.33;;;24.00;83.10;;;;;;6148204;23;20023;-79
2023/06/08 11:28:03;;;;;;;7.15;3.58;;;24.00;80.10;;;;;;6147409;23;20017;-78
2023/06/08 11:30:31;;;;;;;5.15;3.00;;;24.10;79.10;;;;;;6150533;23;20033;-81
2023/06/08 11:32:58;;;;;;;4.72;3.15;;;24.10;77.80;;;;;;6124086;23;20439;-79
2023/06/08 11:35:24;;;;;;;3.80;2.83;;;24.10;77.70;;;;;;6122142;23;20009;-81
2023/06/08 11:37:56;;;;;;;4.80;3.08;;;24.20;79.50;;;;;;6124297;23;20037;-78
2023/06/08 11:40:23;;;;;;;4.72;2.97;;;24.30;79.60;;;;;;6154136;23;20041;-78
2023/06/08 11:42:49;;;;;;;5.10;3.60;;;24.20;77.40;;;;;;6128827;23;20001;-80
2023/06/08 11:45:15;;;;;;;4.15;3.00;;;24.20;75.40;;;;;;6156380;23;20028;-82
2023/06/08 11:47:42;;;;;;;6.70;3.17;;;24.20;75.60;;;;;;6130348;23;20009;-79
2023/06/08 11:50:09;;;;;;;6.10;3.55;;;24.20;75.30;;;;;;6126404;23;20296;-80
2023/06/08 11:52:35;;;;;;;6.80;3.70;;;24.20;74.20;;;;;;6126172;23;20019;-79
2023/06/08 11:55:07;;;;;;;4.88;3.22;;;24.30;76.70;;;;;;6124077;23;20068;-78
2023/06/08 11:57:41;;;;;;;5.63;3.70;;;24.40;75.60;;;;;;6122813;23;20443;-78
2023/06/08 12:00:15;;;;;;;4.25;3.13;;;24.50;74.90;;;;;;6122751;23;20013;-79
2023/06/08 12:02:41;;;;;;;3.67;2.92;;;24.50;71.30;;;;;;6150681;23;20053;-79
2023/06/08 12:05:22;;;;;;;4.68;3.38;;;24.50;71.80;;;;;;6150388;23;20125;-79
2023/06/08 12:08:08;;;;;;;3.10;2.83;;;24.50;72.70;;;;;;6123916;23;20006;-78
2023/06/08 12:10:41;;;;;;;5.90;3.45;;;24.70;72.10;;;;;;6150736;23;20523;-79
2023/06/08 12:13:15;;;;;;;3.78;3.00;;;24.80;70.30;;;;;;6125274;23;20014;-80
2023/06/08 12:15:47;;;;;;;7.30;3.53;;;24.80;71.30;;;;;;6124950;23;20685;-78
2023/06/08 12:18:17;;;;;;;5.30;3.97;;;24.80;70.00;;;;;;6124327;23;20085;-82
2023/06/08 12:20:44;;;;;;;4.47;3.08;;;24.90;69.70;;;;;;6125118;23;20021;-80
2023/06/08 12:23:12;;;;;;;4.70;3.47;;;25.00;71.10;;;;;;6126448;23;20396;-82
2023/06/08 12:25:39;;;;;;;5.88;3.90;;;25.00;70.70;;;;;;6127827;23;20539;-83
2023/06/08 12:28:05;;;;;;;3.65;3.28;;;25.00;69.60;;;;;;6126078;23;20013;-79
2023/06/08 12:30:31;;;;;;;4.13;3.58;;;25.10;70.40;;;;;;6125048;23;20301;-79
2023/06/08 12:32:56;;;;;;;5.53;4.53;;;25.10;71.10;;;;;;6128049;23;20367;-83
2023/06/08 12:35:23;;;;;;;6.57;4.05;;;25.10;70.50;;;;;;6132785;23;20097;-87
2023/06/08 12:37:50;;;;;;;4.30;3.90;;;25.10;70.30;;;;;;6128762;23;20339;-78